Etusivu
METAR-TAF:

METAR-TAF

Lentoasemat :

Sotilaslentoasema

Santos, São Paulo, Brasilia

Leveyspiiri: 23-56S, Pituuspiiri: 046-18W, korkeus merenpinnasta: 3 m

Tämänhetkinen sää

Tämä raportti tehtiin 22 minuuttia sitten, kello 17.00 UTC
Tuuli 4 kn pohjoisesta
Lämpötila 18°C
Kosteus 88%
Ilmanpaine 1020 hPa
Näkyvyys: 5000 m
Pilvistä 1400 ft:n korkeudessa
utua,

METAR: SBST 141700Z 01004KT 5000 BR OVC014 18/16 Q1020

Aika: 14:22 (17:22 UTC)


TAF: puuttuu

Säähavainnot ja -ennusteet yli 4000 lentoasemalta (METAR- ja TAF-raportit).

Käytössä olevat sääasemat on merkitty karttaan keltaisilla ja punaisilla pisteillä.

Aseta hiiri pisteen päälle nähdäksesi sääaseman nimen.

Klikkaa sitten nähdäksesi säähavainnot ja -ennusteet.

Kartan vaihtaminen: klikkaa mustalla rastilla varustettuja vihreitä pisteitä, niin voit zoomata sisään; viivalla varustettua vihreää pistettä, niin voit zoomata ulos tai vihreitä nuolia, niin pääset viereisille kartoille.


METAR-TAF: